Time;durP1;ratioP1;P1;durP2;ratioP2;P2;SDS_P1;SDS_P2;PMS_P1;PMS_P2;Temp;Humidity;BMP_temperature;BMP_pressure;BME280_temperature;BME280_humidity;BME280_pressure;Samples;Min_cycle;Max_cycle;Signal;HPM_P1;HPM_P2
2024/04/22 00:02:20;;;;;;;15.03;13.80;;;4.10;99.90;;;;;;5246265;27;20755;-80
2024/04/22 00:04:49;;;;;;;14.63;13.43;;;4.10;99.90;;;;;;5244500;27;20280;-80
2024/04/22 00:07:15;;;;;;;15.90;14.50;;;4.10;99.90;;;;;;5246280;27;20241;-80
2024/04/22 00:09:47;;;;;;;14.47;13.10;;;4.00;99.90;;;;;;5243233;27;20253;-80
2024/04/22 00:12:15;;;;;;;14.87;13.57;;;4.00;99.90;;;;;;5244033;27;20339;-80
2024/04/22 00:14:44;;;;;;;14.90;13.43;;;3.90;99.90;;;;;;5247859;27;20365;-80
2024/04/22 00:17:10;;;;;;;14.70;13.47;;;3.90;99.90;;;;;;5244749;27;20841;-80
2024/04/22 00:19:38;;;;;;;14.67;13.37;;;3.80;99.90;;;;;;5244124;27;20253;-80
2024/04/22 00:22:04;;;;;;;14.63;13.43;;;3.90;99.90;;;;;;5244993;27;20289;-80
2024/04/22 00:24:33;;;;;;;13.20;12.10;;;3.90;99.90;;;;;;5246099;27;20664;-80
2024/04/22 00:26:59;;;;;;;13.50;12.40;;;3.90;99.90;;;;;;5245966;27;20242;-80
2024/04/22 00:29:30;;;;;;;14.53;13.13;;;4.00;99.90;;;;;;5245495;27;20298;-80
2024/04/22 00:31:56;;;;;;;14.50;13.20;;;3.90;99.90;;;;;;5271952;27;20247;-80
2024/04/22 00:34:24;;;;;;;14.40;13.13;;;3.90;99.90;;;;;;5232560;27;20280;-80
2024/04/22 00:36:50;;;;;;;14.17;13.03;;;3.90;99.90;;;;;;5244519;27;20290;-80
2024/04/22 00:39:18;;;;;;;13.83;12.73;;;3.90;99.90;;;;;;5244755;27;20753;-80
2024/04/22 00:41:44;;;;;;;14.00;12.90;;;3.90;99.90;;;;;;5245493;27;20234;-80
2024/04/22 00:44:13;;;;;;;13.40;12.30;;;3.90;99.90;;;;;;5246201;27;20284;-81
2024/04/22 00:46:42;;;;;;;13.27;12.17;;;3.80;99.90;;;;;;5245212;27;20361;-81
2024/04/22 00:49:11;;;;;;;13.40;12.30;;;3.80;99.90;;;;;;5245036;27;20249;-81
2024/04/22 00:51:38;;;;;;;13.57;12.47;;;3.80;99.90;;;;;;5263528;27;20591;-81
2024/04/22 00:54:07;;;;;;;12.77;11.77;;;3.80;99.90;;;;;;5268095;27;20281;-80
2024/04/22 00:56:35;;;;;;;13.37;12.27;;;3.80;99.90;;;;;;5246167;27;20243;-80
2024/04/22 00:59:04;;;;;;;13.10;12.10;;;3.90;99.90;;;;;;5242652;27;20279;-80
2024/04/22 01:01:31;;;;;;;12.53;11.63;;;3.80;99.90;;;;;;5227769;27;20687;-80
2024/04/22 01:04:02;;;;;;;12.43;11.50;;;3.80;99.90;;;;;;5245613;27;20629;-80
2024/04/22 01:06:28;;;;;;;13.47;12.17;;;3.80;99.90;;;;;;5239308;27;20792;-81
2024/04/22 01:08:57;;;;;;;12.80;11.80;;;3.80;99.90;;;;;;5251987;27;20282;-80
2024/04/22 01:11:25;;;;;;;12.87;11.87;;;3.80;99.90;;;;;;5243612;27;20237;-81
2024/04/22 01:13:54;;;;;;;12.60;11.60;;;3.80;99.90;;;;;;5238575;27;20242;-80
2024/04/22 01:16:22;;;;;;;13.43;12.17;;;3.80;99.90;;;;;;5246927;27;20238;-81
2024/04/22 01:18:48;;;;;;;13.37;12.03;;;3.80;99.90;;;;;;5248310;27;20432;-80
2024/04/22 01:21:25;;;;;;;12.97;11.87;;;3.80;99.90;;;;;;5247623;27;20718;-81
2024/04/22 01:23:53;;;;;;;12.73;11.63;;;3.80;99.90;;;;;;5248796;27;20351;-80
2024/04/22 01:26:22;;;;;;;11.83;10.83;;;3.70;99.90;;;;;;5273677;27;20260;-80
2024/04/22 01:28:48;;;;;;;12.90;11.90;;;3.70;99.90;;;;;;5246969;27;20246;-80
2024/04/22 01:31:18;;;;;;;12.37;11.27;;;3.70;99.90;;;;;;5245259;27;20246;-80
2024/04/22 01:33:44;;;;;;;12.30;11.30;;;3.70;99.90;;;;;;5247415;27;20233;-80
2024/04/22 01:36:12;;;;;;;11.80;10.90;;;3.70;99.90;;;;;;5244850;27;20245;-80
2024/04/22 01:38:41;;;;;;;12.47;11.47;;;3.70;99.90;;;;;;5272726;27;20250;-80
2024/04/22 01:41:09;;;;;;;12.10;11.10;;;3.70;99.90;;;;;;5235351;27;20787;-80
2024/04/22 01:43:35;;;;;;;12.13;11.13;;;3.70;99.90;;;;;;5245343;27;20246;-80
2024/04/22 01:46:05;;;;;;;12.20;11.20;;;3.70;99.90;;;;;;5273323;27;20246;-80
2024/04/22 01:48:32;;;;;;;12.10;11.20;;;3.70;99.90;;;;;;5272622;27;20242;-80
2024/04/22 01:51:00;;;;;;;12.67;11.67;;;3.80;99.90;;;;;;5246875;27;20427;-80
2024/04/22 01:53:26;;;;;;;12.00;10.97;;;3.80;99.90;;;;;;5247166;27;20325;-80
2024/04/22 01:55:59;;;;;;;12.43;11.37;;;3.80;99.90;;;;;;5247560;27;20242;-80
2024/04/22 01:58:25;;;;;;;12.27;11.37;;;3.80;99.90;;;;;;5273151;27;20249;-80
2024/04/22 02:00:53;;;;;;;12.80;11.63;;;3.80;99.90;;;;;;5243722;27;20674;-80
2024/04/22 02:03:19;;;;;;;12.30;11.40;;;3.70;99.90;;;;;;5247542;27;20745;-80
2024/04/22 02:05:47;;;;;;;12.87;11.77;;;3.70;99.90;;;;;;5272829;27;20271;-79
2024/04/22 02:08:13;;;;;;;12.20;11.23;;;3.70;99.90;;;;;;5272078;27;20331;-80
2024/04/22 02:10:42;;;;;;;12.90;11.53;;;3.70;99.90;;;;;;5272486;27;20253;-80
2024/04/22 02:13:10;;;;;;;13.47;12.37;;;3.60;99.90;;;;;;5259992;27;20245;-80
2024/04/22 02:15:39;;;;;;;13.77;11.43;;;3.60;99.90;;;;;;5235868;27;20779;-80
2024/04/22 02:18:06;;;;;;;12.27;11.27;;;3.60;99.90;;;;;;5245968;27;20242;-80
2024/04/22 02:20:35;;;;;;;12.10;11.10;;;3.60;99.90;;;;;;5254897;27;20323;-80
2024/04/22 02:23:01;;;;;;;12.27;11.20;;;3.60;99.90;;;;;;5230006;27;20234;-80
2024/04/22 02:25:30;;;;;;;12.23;11.23;;;3.60;99.90;;;;;;5273188;27;20585;-80
2024/04/22 02:27:56;;;;;;;12.77;11.67;;;3.60;99.90;;;;;;5243793;27;20254;-80
2024/04/22 02:30:27;;;;;;;12.70;11.70;;;3.60;99.90;;;;;;5272463;27;20309;-80
2024/04/22 02:32:53;;;;;;;12.37;11.37;;;3.60;99.90;;;;;;5246372;27;20797;-80
2024/04/22 02:35:21;;;;;;;11.20;10.30;;;3.60;99.90;;;;;;5272122;27;20245;-80
2024/04/22 02:37:47;;;;;;;11.80;10.80;;;3.60;99.90;;;;;;5245705;27;20712;-80
2024/04/22 02:40:16;;;;;;;12.03;11.13;;;3.60;99.90;;;;;;5240168;27;20258;-80
2024/04/22 02:42:42;;;;;;;12.77;11.77;;;3.70;99.90;;;;;;5248647;27;20257;-79
2024/04/22 02:45:11;;;;;;;12.27;11.27;;;3.60;99.90;;;;;;5246034;27;20288;-79
2024/04/22 02:47:40;;;;;;;12.93;11.73;;;3.60;99.90;;;;;;5272657;27;20242;-79
2024/04/22 02:50:09;;;;;;;12.00;11.00;;;3.60;99.90;;;;;;5234149;27;20281;-80
2024/04/22 02:52:35;;;;;;;12.97;11.97;;;3.60;99.90;;;;;;5244057;27;20242;-83
2024/04/22 02:55:03;;;;;;;12.43;11.43;;;3.60;99.90;;;;;;5246582;27;20313;-81
2024/04/22 02:57:29;;;;;;;12.07;11.07;;;3.60;99.90;;;;;;5268912;27;20281;-82
2024/04/22 02:59:57;;;;;;;12.47;11.23;;;3.50;99.90;;;;;;5241693;27;20249;-83
2024/04/22 03:02:23;;;;;;;12.13;11.03;;;3.50;99.90;;;;;;5240305;27;20604;-84
2024/04/22 03:04:55;;;;;;;11.20;10.30;;;3.50;99.90;;;;;;5231178;27;20293;-84
2024/04/22 03:07:20;;;;;;;13.00;11.90;;;3.50;99.90;;;;;;5237480;27;20643;-83
2024/04/22 03:09:49;;;;;;;12.40;11.23;;;3.50;99.90;;;;;;5258617;27;20255;-82
2024/04/22 03:12:15;;;;;;;12.87;11.77;;;3.50;99.90;;;;;;5234193;27;20246;-82
2024/04/22 03:14:43;;;;;;;12.63;11.40;;;3.40;99.90;;;;;;5231479;27;20254;-80
2024/04/22 03:17:09;;;;;;;11.63;10.63;;;3.30;99.90;;;;;;5272479;27;20737;-82
2024/04/22 03:19:38;;;;;;;11.47;10.47;;;3.20;99.90;;;;;;5242097;27;22374;-81
2024/04/22 03:22:06;;;;;;;12.93;11.83;;;3.20;99.90;;;;;;5232879;27;20686;-82
2024/04/22 03:24:35;;;;;;;12.23;11.23;;;3.10;99.90;;;;;;5237230;27;20241;-83
2024/04/22 03:27:01;;;;;;;11.83;10.80;;;3.10;99.90;;;;;;5234164;27;20250;-82
2024/04/22 03:29:29;;;;;;;11.83;10.73;;;3.20;99.90;;;;;;5229651;27;20599;-82
2024/04/22 03:31:55;;;;;;;11.87;10.87;;;3.20;99.90;;;;;;5247746;27;20250;-82
2024/04/22 03:34:24;;;;;;;11.53;10.53;;;3.20;99.90;;;;;;5244880;27;20288;-81
2024/04/22 03:36:52;;;;;;;11.53;10.53;;;3.20;99.90;;;;;;5264355;27;20248;-79
2024/04/22 03:39:23;;;;;;;13.80;12.80;;;3.20;99.90;;;;;;5249400;27;20288;-82
2024/04/22 03:41:52;;;;;;;15.03;13.80;;;3.20;99.90;;;;;;5234124;27;20241;-83
2024/04/22 03:44:21;;;;;;;14.73;13.60;;;3.30;99.90;;;;;;5271321;27;20339;-81
2024/04/22 03:52:18;;;;;;;13.87;12.87;;;3.30;99.90;;;;;;5239666;27;20296;-83
2024/04/22 03:54:49;;;;;;;14.47;13.33;;;3.30;99.90;;;;;;5270495;27;20261;-82
2024/04/22 03:57:18;;;;;;;14.03;12.93;;;3.30;99.90;;;;;;5270143;27;20242;-82
2024/04/22 03:59:46;;;;;;;14.33;13.23;;;3.30;99.90;;;;;;5268717;27;20661;-82
2024/04/22 04:02:12;;;;;;;14.33;13.33;;;3.30;99.90;;;;;;5242570;27;20668;-78
2024/04/22 04:04:41;;;;;;;14.17;13.07;;;3.30;99.90;;;;;;5243190;27;20289;-78
2024/04/22 04:07:07;;;;;;;14.37;13.13;;;3.30;99.90;;;;;;5243345;27;20234;-79
2024/04/22 04:09:36;;;;;;;13.83;12.70;;;3.30;99.90;;;;;;5268860;27;20261;-78
2024/04/22 04:12:05;;;;;;;13.73;12.70;;;3.30;99.90;;;;;;5223974;27;20273;-78
2024/04/22 04:14:34;;;;;;;16.23;15.03;;;3.20;99.90;;;;;;5243403;27;20351;-79
2024/04/22 04:17:00;;;;;;;13.67;12.73;;;3.30;99.90;;;;;;5269823;27;20657;-78
2024/04/22 04:19:29;;;;;;;14.30;13.23;;;3.20;99.90;;;;;;5240777;27;20254;-78
2024/04/22 04:21:55;;;;;;;14.37;13.07;;;3.20;99.90;;;;;;5244032;27;20799;-78
2024/04/22 04:24:24;;;;;;;13.20;12.23;;;3.20;99.90;;;;;;5243691;27;20233;-78
2024/04/22 04:26:49;;;;;;;13.70;12.70;;;3.30;99.90;;;;;;5243353;27;20309;-78
2024/04/22 04:29:20;;;;;;;13.60;12.60;;;3.20;99.90;;;;;;5240602;27;20356;-78
2024/04/22 04:31:46;;;;;;;14.10;13.03;;;3.20;99.90;;;;;;5269525;27;20355;-78
2024/04/22 04:34:16;;;;;;;15.03;13.80;;;3.20;99.90;;;;;;5243025;27;20241;-79
2024/04/22 04:36:42;;;;;;;14.40;13.30;;;3.20;99.90;;;;;;5269076;27;20272;-78
2024/04/22 04:39:10;;;;;;;13.03;12.03;;;3.30;99.90;;;;;;5268540;27;20254;-78
2024/04/22 04:41:36;;;;;;;13.13;12.20;;;3.30;99.90;;;;;;5241337;27;20749;-79
2024/04/22 04:44:05;;;;;;;14.27;13.10;;;3.30;99.90;;;;;;5269634;27;20276;-78
2024/04/22 04:46:33;;;;;;;14.07;12.97;;;3.30;99.90;;;;;;5268673;27;20288;-78
2024/04/22 04:49:02;;;;;;;13.47;12.47;;;3.20;99.90;;;;;;5269291;27;20238;-79
2024/04/22 04:51:28;;;;;;;13.60;12.50;;;3.20;99.90;;;;;;5234894;27;20292;-79
2024/04/22 04:53:56;;;;;;;13.67;12.67;;;3.20;99.90;;;;;;5269754;27;20305;-78
2024/04/22 04:56:22;;;;;;;13.73;12.70;;;3.30;99.90;;;;;;5243190;27;20287;-78
2024/04/22 04:58:50;;;;;;;13.07;12.17;;;3.30;99.90;;;;;;5242286;27;20234;-79
2024/04/22 05:01:16;;;;;;;14.23;13.20;;;3.30;99.90;;;;;;5243235;27;20246;-78
2024/04/22 05:03:47;;;;;;;14.20;13.20;;;3.40;99.90;;;;;;5242694;27;20288;-78
2024/04/22 05:06:13;;;;;;;13.63;12.63;;;3.40;99.90;;;;;;5269106;27;20755;-78
2024/04/22 05:08:42;;;;;;;13.87;12.97;;;3.40;99.90;;;;;;5268444;27;20245;-78
2024/04/22 05:11:08;;;;;;;14.07;13.07;;;3.40;99.90;;;;;;5237675;27;20834;-79
2024/04/22 05:13:36;;;;;;;14.53;13.30;;;3.40;99.90;;;;;;5242760;27;20318;-79
2024/04/22 05:16:02;;;;;;;14.57;13.57;;;3.40;99.90;;;;;;5235350;27;20570;-79
2024/04/22 05:18:31;;;;;;;13.73;12.73;;;3.40;99.90;;;;;;5251934;27;20281;-78
2024/04/22 05:20:59;;;;;;;14.07;13.07;;;3.40;99.90;;;;;;5235497;27;20239;-78
2024/04/22 05:23:28;;;;;;;14.20;13.23;;;3.40;99.90;;;;;;5237226;27;20373;-79
2024/04/22 05:25:53;;;;;;;14.43;13.23;;;3.40;99.90;;;;;;5242683;27;20344;-79
2024/04/22 05:28:25;;;;;;;13.60;12.60;;;3.40;99.90;;;;;;5268141;27;20245;-79
2024/04/22 05:30:51;;;;;;;13.30;12.40;;;3.30;99.90;;;;;;5241859;27;20288;-79
2024/04/22 05:36:14;;;;;;;13.57;12.60;;;3.30;99.90;;;;;;5233074;27;20590;-79
2024/04/22 05:38:43;;;;;;;13.47;12.40;;;3.30;99.90;;;;;;5267999;27;20249;-78
2024/04/22 05:41:13;;;;;;;14.00;12.70;;;3.40;99.90;;;;;;5242592;27;20753;-79
2024/04/22 05:43:41;;;;;;;13.80;12.90;;;3.40;99.90;;;;;;5268951;27;20261;-79
2024/04/22 05:46:11;;;;;;;13.77;12.87;;;3.30;99.90;;;;;;5241374;27;20233;-79
2024/04/22 05:48:39;;;;;;;14.07;13.07;;;3.40;99.90;;;;;;5240667;27;20234;-78
2024/04/22 05:51:11;;;;;;;14.07;12.97;;;3.30;99.90;;;;;;5268178;27;20730;-79
2024/04/22 05:53:39;;;;;;;14.37;13.17;;;3.30;99.90;;;;;;5241553;27;20238;-78
2024/04/22 05:56:08;;;;;;;14.40;13.40;;;3.30;99.90;;;;;;5241413;27;20246;-76
2024/04/22 05:58:34;;;;;;;15.23;14.00;;;3.30;99.90;;;;;;5227771;27;20722;-76
2024/04/22 06:01:02;;;;;;;13.77;12.87;;;3.40;99.90;;;;;;5270976;27;20321;-79
2024/04/22 06:03:28;;;;;;;14.30;13.10;;;3.40;99.90;;;;;;5271884;27;20249;-79
2024/04/22 06:05:57;;;;;;;14.10;13.10;;;3.30;99.90;;;;;;5245126;27;20364;-79
2024/04/22 06:08:25;;;;;;;13.80;12.80;;;3.30;99.90;;;;;;5243851;27;20887;-79
2024/04/22 06:10:54;;;;;;;13.73;12.67;;;3.20;99.90;;;;;;5244486;27;20245;-79
2024/04/22 06:13:20;;;;;;;13.40;12.33;;;3.20;99.90;;;;;;5235058;27;20243;-78
2024/04/22 06:15:48;;;;;;;13.53;12.63;;;3.20;99.90;;;;;;5230766;27;20876;-79
2024/04/22 06:18:14;;;;;;;12.97;12.07;;;3.20;99.90;;;;;;5244202;27;20285;-79
2024/04/22 06:20:42;;;;;;;12.87;11.87;;;3.30;99.90;;;;;;5241041;27;20322;-77
2024/04/22 06:23:08;;;;;;;13.87;12.93;;;3.20;99.90;;;;;;5232491;27;20347;-78
2024/04/22 06:25:39;;;;;;;13.20;12.20;;;3.20;99.90;;;;;;5251255;27;20257;-80
2024/04/22 06:28:05;;;;;;;14.03;12.83;;;3.30;99.90;;;;;;5270874;27;20245;-77
2024/04/22 06:30:34;;;;;;;13.00;12.10;;;3.30;99.90;;;;;;5240865;27;20293;-77
2024/04/22 06:33:02;;;;;;;12.97;11.97;;;3.30;99.90;;;;;;5224624;27;20250;-77
2024/04/22 06:35:28;;;;;;;13.03;12.13;;;3.30;99.90;;;;;;5237312;27;20284;-77
2024/04/22 06:37:57;;;;;;;14.37;13.07;;;3.30;99.90;;;;;;5243041;27;20241;-77
2024/04/22 06:40:23;;;;;;;13.20;12.30;;;3.30;99.90;;;;;;5270196;27;20707;-77
2024/04/22 06:42:54;;;;;;;13.47;12.47;;;3.30;99.90;;;;;;5243447;27;20293;-76
2024/04/22 06:45:20;;;;;;;13.27;12.27;;;3.30;99.90;;;;;;5255245;27;20296;-77
2024/04/22 06:47:48;;;;;;;13.37;12.37;;;3.20;99.90;;;;;;5242089;27;20254;-77
2024/04/22 06:50:14;;;;;;;12.77;11.87;;;3.20;99.90;;;;;;5269744;27;20732;-77
2024/04/22 06:52:43;;;;;;;13.10;11.90;;;3.20;99.90;;;;;;5228047;27;20259;-77
2024/04/22 06:55:09;;;;;;;12.70;11.80;;;3.30;99.90;;;;;;5231850;27;20753;-77
2024/04/22 06:57:37;;;;;;;13.00;12.00;;;3.40;99.90;;;;;;5243136;27;20288;-77
2024/04/22 07:00:07;;;;;;;12.97;11.77;;;3.40;99.90;;;;;;5240304;27;20238;-77
2024/04/22 07:02:35;;;;;;;12.57;11.70;;;3.40;99.90;;;;;;5243342;27;20369;-77
2024/04/22 07:05:01;;;;;;;13.97;12.93;;;3.40;99.90;;;;;;5243211;27;20283;-77
2024/04/22 07:07:30;;;;;;;12.93;12.03;;;3.40;99.90;;;;;;5241790;27;20587;-77
2024/04/22 07:09:56;;;;;;;13.13;12.23;;;3.40;99.90;;;;;;5242141;27;20292;-77
2024/04/22 07:12:24;;;;;;;13.70;12.67;;;3.30;99.90;;;;;;5268988;27;20250;-77
2024/04/22 07:14:50;;;;;;;13.33;12.40;;;3.30;99.90;;;;;;5243370;27;20230;-77
2024/04/22 07:17:22;;;;;;;13.30;12.30;;;3.30;99.90;;;;;;5243599;27;20645;-79
2024/04/22 07:19:49;;;;;;;13.37;12.33;;;3.40;99.90;;;;;;5270168;27;20292;-77
2024/04/22 07:22:18;;;;;;;14.53;12.00;;;3.40;99.90;;;;;;5243928;27;20289;-78
2024/04/22 07:24:45;;;;;;;12.53;11.63;;;3.50;99.90;;;;;;5243564;27;20313;-77
2024/04/22 07:27:14;;;;;;;12.93;12.03;;;3.60;99.90;;;;;;5242564;27;20332;-78
2024/04/22 07:29:41;;;;;;;13.17;12.17;;;3.50;99.90;;;;;;5242267;27;20709;-78
2024/04/22 07:32:10;;;;;;;13.47;12.47;;;3.60;99.90;;;;;;5269800;27;20800;-78
2024/04/22 07:34:40;;;;;;;13.60;12.70;;;3.60;99.90;;;;;;5243369;27;20280;-78
2024/04/22 07:37:19;;;;;;;13.17;12.17;;;3.60;99.90;;;;;;5249695;27;20576;-78
2024/04/22 07:39:46;;;;;;;13.13;12.13;;;3.70;99.90;;;;;;5268315;27;20693;-78
2024/04/22 07:42:15;;;;;;;13.90;12.47;;;3.80;99.90;;;;;;5241330;27;20776;-78
2024/04/22 07:44:41;;;;;;;13.13;12.17;;;3.90;99.90;;;;;;5269985;27;20279;-78
2024/04/22 07:47:09;;;;;;;13.27;12.27;;;3.90;99.90;;;;;;5256563;27;20907;-79
2024/04/22 07:49:36;;;;;;;12.93;12.03;;;4.00;99.90;;;;;;5241608;27;20249;-79
2024/04/22 07:52:07;;;;;;;12.57;11.67;;;4.10;99.90;;;;;;5243453;27;20245;-78
2024/04/22 07:54:34;;;;;;;12.77;11.87;;;4.00;99.90;;;;;;5255112;27;20285;-84
2024/04/22 07:57:03;;;;;;;12.43;11.63;;;4.10;99.90;;;;;;5241724;27;20349;-84
2024/04/22 07:59:29;;;;;;;13.97;12.60;;;4.20;99.90;;;;;;5246761;27;20335;-82
2024/04/22 08:01:59;;;;;;;13.43;12.43;;;4.20;99.90;;;;;;5259347;27;20246;-85
2024/04/22 08:04:25;;;;;;;13.00;12.10;;;4.20;99.90;;;;;;5251192;27;20291;-79
2024/04/22 08:06:58;;;;;;;13.67;12.57;;;4.20;99.90;;;;;;5246249;27;20282;-80
2024/04/22 08:09:26;;;;;;;12.50;11.70;;;4.20;99.90;;;;;;5237099;27;20315;-83
2024/04/22 08:11:56;;;;;;;13.30;12.27;;;4.20;99.90;;;;;;5238818;27;20823;-80
2024/04/22 08:14:22;;;;;;;11.60;10.90;;;4.20;99.90;;;;;;5245332;27;20284;-79
2024/04/22 08:16:50;;;;;;;12.20;11.40;;;4.30;99.90;;;;;;5245407;27;20293;-79
2024/04/22 08:19:16;;;;;;;12.93;11.93;;;4.40;99.90;;;;;;5245747;27;20250;-79
2024/04/22 08:21:45;;;;;;;11.90;11.10;;;4.50;99.90;;;;;;5268169;27;20263;-80
2024/04/22 08:24:11;;;;;;;13.30;12.23;;;4.60;99.90;;;;;;5228416;27;20286;-79
2024/04/22 08:26:42;;;;;;;12.40;11.60;;;4.60;99.90;;;;;;5240988;27;20253;-79
2024/04/22 08:29:08;;;;;;;12.37;11.47;;;4.60;99.90;;;;;;5269660;27;20251;-80
2024/04/22 08:31:39;;;;;;;12.93;12.03;;;4.60;99.90;;;;;;5245774;27;20290;-79
2024/04/22 08:34:05;;;;;;;12.90;11.90;;;4.60;99.90;;;;;;5245077;27;20243;-79
2024/04/22 08:36:33;;;;;;;12.77;11.73;;;4.70;99.90;;;;;;5247405;27;20637;-79
2024/04/22 08:38:59;;;;;;;13.20;12.20;;;4.70;99.90;;;;;;5269055;27;20750;-80
2024/04/22 08:41:28;;;;;;;12.03;11.23;;;4.60;99.90;;;;;;5243203;27;20286;-81
2024/04/22 08:43:56;;;;;;;11.87;11.17;;;4.50;99.90;;;;;;5235692;27;20245;-80
2024/04/22 08:46:28;;;;;;;11.97;11.23;;;4.60;99.90;;;;;;5233063;27;20594;-81
2024/04/22 08:48:54;;;;;;;12.20;11.40;;;4.60;99.90;;;;;;5243536;27;20259;-79
2024/04/22 08:51:23;;;;;;;12.30;11.37;;;4.60;99.90;;;;;;5271001;27;20635;-80
2024/04/22 08:53:51;;;;;;;12.97;11.97;;;4.60;99.90;;;;;;5243833;27;20239;-77
2024/04/22 08:56:21;;;;;;;12.10;11.20;;;4.50;99.90;;;;;;5243170;27;20346;-78
2024/04/22 08:58:47;;;;;;;12.33;11.50;;;4.50;99.90;;;;;;5243144;27;20290;-81
2024/04/22 09:01:18;;;;;;;12.67;11.67;;;4.60;99.90;;;;;;5235277;27;20314;-80
2024/04/22 09:03:44;;;;;;;12.90;12.00;;;4.60;99.90;;;;;;5212801;27;20265;-80
2024/04/22 09:06:13;;;;;;;12.10;11.20;;;4.60;99.90;;;;;;5236127;27;20244;-80
2024/04/22 09:08:42;;;;;;;11.50;10.70;;;4.70;99.90;;;;;;5243537;27;20856;-81
2024/04/22 09:11:17;;;;;;;11.93;11.10;;;4.70;99.90;;;;;;5243778;27;20273;-80
2024/04/22 09:13:44;;;;;;;11.40;10.60;;;4.80;99.90;;;;;;5271101;27;20591;-78
2024/04/22 09:16:19;;;;;;;11.33;10.50;;;4.80;99.90;;;;;;5243715;27;20280;-80
2024/04/22 09:18:45;;;;;;;12.13;11.33;;;4.70;99.90;;;;;;5243664;27;20234;-80
2024/04/22 09:21:14;;;;;;;12.63;11.80;;;4.70;99.90;;;;;;5219449;27;20277;-80
2024/04/22 09:23:40;;;;;;;12.53;11.63;;;4.70;99.90;;;;;;5270883;27;20243;-81
2024/04/22 09:26:10;;;;;;;12.70;11.90;;;4.80;99.90;;;;;;5270754;27;20653;-80
2024/04/22 09:28:36;;;;;;;12.80;11.80;;;4.90;99.90;;;;;;5243902;27;20781;-80
2024/04/22 09:31:06;;;;;;;12.60;11.60;;;5.00;99.90;;;;;;5271283;27;20282;-80
2024/04/22 09:33:36;;;;;;;12.50;11.60;;;5.10;99.90;;;;;;5247511;27;20243;-80
2024/04/22 09:36:05;;;;;;;13.20;12.20;;;5.20;99.90;;;;;;5247393;27;20735;-80
2024/04/22 09:38:32;;;;;;;12.87;12.07;;;5.30;99.90;;;;;;5272897;27;20283;-81
2024/04/22 09:41:04;;;;;;;12.90;11.90;;;5.50;99.90;;;;;;5272566;27;20289;-78
2024/04/22 09:43:32;;;;;;;12.77;11.77;;;5.60;99.90;;;;;;5247659;27;20236;-79
2024/04/22 09:46:03;;;;;;;12.80;11.90;;;5.70;99.90;;;;;;5245863;27;20244;-80
2024/04/22 09:48:30;;;;;;;12.60;11.80;;;5.70;99.90;;;;;;5247030;27;20287;-80
2024/04/22 09:51:02;;;;;;;12.50;11.60;;;5.80;99.90;;;;;;5248048;27;20593;-80
2024/04/22 09:53:29;;;;;;;12.70;11.70;;;6.00;99.90;;;;;;5274192;27;20248;-81
2024/04/22 09:56:00;;;;;;;11.77;10.87;;;6.20;99.90;;;;;;5273844;27;20257;-80
2024/04/22 09:58:30;;;;;;;12.50;11.50;;;6.40;99.90;;;;;;5244846;27;20244;-78
2024/04/22 10:00:58;;;;;;;12.80;11.90;;;6.60;99.90;;;;;;5246559;27;20760;-80
2024/04/22 10:03:26;;;;;;;12.97;12.07;;;6.60;99.90;;;;;;5247310;27;20237;-80
2024/04/22 10:05:57;;;;;;;12.47;11.60;;;6.80;99.90;;;;;;5272860;27;20743;-80
2024/04/22 10:08:26;;;;;;;11.10;10.40;;;6.90;99.90;;;;;;5211726;27;20333;-80
2024/04/22 10:10:55;;;;;;;10.80;10.10;;;7.10;99.90;;;;;;5240883;27;20293;-80
2024/04/22 10:13:25;;;;;;;11.47;10.60;;;7.40;99.90;;;;;;5248035;27;20881;-85
2024/04/22 10:15:53;;;;;;;11.40;10.70;;;7.50;99.90;;;;;;5233919;27;20373;-80
2024/04/22 10:18:19;;;;;;;12.10;11.10;;;7.80;99.90;;;;;;5236288;27;20313;-80
2024/04/22 10:20:48;;;;;;;11.90;10.80;;;7.90;99.90;;;;;;5247654;27;20284;-80
2024/04/22 10:23:14;;;;;;;11.27;10.40;;;8.10;99.90;;;;;;5274960;27;20254;-81
2024/04/22 10:25:46;;;;;;;10.70;10.00;;;8.30;99.90;;;;;;5248996;27;20238;-81
2024/04/22 10:28:12;;;;;;;11.23;10.33;;;8.30;99.90;;;;;;5273469;27;20402;-83
2024/04/22 10:30:42;;;;;;;11.50;10.60;;;8.30;99.90;;;;;;5245620;27;20733;-81
2024/04/22 10:33:08;;;;;;;11.17;10.40;;;8.50;99.90;;;;;;5246174;27;20241;-82
2024/04/22 10:35:36;;;;;;;11.80;11.00;;;8.80;99.90;;;;;;5246605;27;20289;-79
2024/04/22 10:38:02;;;;;;;11.17;10.37;;;8.80;99.90;;;;;;5244879;27;20238;-82
2024/04/22 10:40:31;;;;;;;11.07;10.37;;;8.80;99.90;;;;;;5246321;27;20274;-83
2024/04/22 10:42:59;;;;;;;11.40;10.53;;;8.90;99.90;;;;;;5237468;27;20849;-81
2024/04/22 10:45:28;;;;;;;10.90;10.13;;;8.80;99.90;;;;;;5244256;27;20289;-82
2024/04/22 10:47:54;;;;;;;10.60;9.90;;;8.60;99.90;;;;;;5272528;27;20363;-81
2024/04/22 10:50:23;;;;;;;10.37;9.77;;;8.20;99.90;;;;;;5245645;27;20242;-82
2024/04/22 10:52:49;;;;;;;11.03;10.13;;;8.30;99.90;;;;;;5272158;27;20283;-82
2024/04/22 10:55:18;;;;;;;10.77;10.07;;;8.20;99.90;;;;;;5245255;27;20352;-82
2024/04/22 10:57:45;;;;;;;10.50;9.80;;;8.20;99.90;;;;;;5271609;27;20242;-81
2024/04/22 11:00:17;;;;;;;9.83;9.23;;;8.70;99.90;;;;;;5282928;21;20601;-80
2024/04/22 11:02:43;;;;;;;10.60;9.70;;;8.90;99.90;;;;;;5243784;27;20254;-80
2024/04/22 11:05:12;;;;;;;11.07;10.27;;;9.10;99.90;;;;;;5231891;27;20291;-80
2024/04/22 11:07:38;;;;;;;10.43;9.63;;;9.00;99.90;;;;;;5245449;27;20239;-80
2024/04/22 11:10:08;;;;;;;10.00;9.23;;;9.00;99.90;;;;;;5242884;27;20250;-80
2024/04/22 11:12:34;;;;;;;10.23;9.50;;;9.20;99.90;;;;;;5244297;27;20288;-81
2024/04/22 11:15:02;;;;;;;9.73;9.03;;;9.50;99.90;;;;;;5243809;27;20376;-80
2024/04/22 11:17:31;;;;;;;9.00;8.30;;;9.40;99.90;;;;;;5243440;27;20317;-81
2024/04/22 11:20:11;;;;;;;9.30;8.70;;;9.30;99.90;;;;;;5244915;27;20368;-80
2024/04/22 11:22:37;;;;;;;12.37;11.57;;;8.90;99.90;;;;;;5240753;27;20273;-81
2024/04/22 11:25:06;;;;;;;11.23;10.40;;;9.00;99.90;;;;;;5244992;27;20864;-80
2024/04/22 11:27:33;;;;;;;7.83;7.33;;;9.20;99.90;;;;;;5243803;27;20287;-78
2024/04/22 11:30:01;;;;;;;3.30;3.00;;;9.50;99.90;;;;;;5243357;27;20238;-78
2024/04/22 11:32:28;;;;;;;6.60;6.00;;;9.70;99.90;;;;;;5256458;27;20613;-78
2024/04/22 11:34:59;;;;;;;3.17;2.83;;;10.20;99.90;;;;;;5237299;27;20421;-80
2024/04/22 11:37:26;;;;;;;5.20;4.80;;;10.40;99.90;;;;;;5242787;27;20689;-78
2024/04/22 11:39:54;;;;;;;3.30;3.10;;;10.40;99.90;;;;;;5242711;27;20249;-78
2024/04/22 11:42:21;;;;;;;6.60;6.00;;;10.50;99.90;;;;;;5244219;27;20282;-78
2024/04/22 11:44:51;;;;;;;5.50;5.00;;;10.60;99.90;;;;;;5243981;27;20288;-81
2024/04/22 11:47:17;;;;;;;9.93;9.23;;;10.40;99.90;;;;;;5242675;27;20236;-78
2024/04/22 11:49:46;;;;;;;7.97;7.27;;;10.30;99.90;;;;;;5243137;27;20752;-78
2024/04/22 11:52:14;;;;;;;10.93;10.13;;;10.20;99.90;;;;;;5260405;27;20685;-78
2024/04/22 11:54:44;;;;;;;9.27;8.67;;;10.20;99.90;;;;;;5243224;27;20252;-78
2024/04/22 11:57:10;;;;;;;9.73;9.13;;;10.30;99.90;;;;;;5261895;27;20272;-78
2024/04/22 11:59:38;;;;;;;10.50;9.53;;;10.30;99.90;;;;;;5230647;27;20242;-78
2024/04/22 12:02:04;;;;;;;9.90;9.30;;;10.20;99.90;;;;;;5244468;27;20242;-78
2024/04/22 12:04:33;;;;;;;10.00;9.20;;;10.10;99.90;;;;;;5257655;27;20292;-78
2024/04/22 12:06:59;;;;;;;9.97;9.23;;;10.00;99.90;;;;;;5241897;27;20255;-79
2024/04/22 12:09:30;;;;;;;9.00;8.40;;;10.10;99.90;;;;;;5242610;27;20284;-79
2024/04/22 12:11:56;;;;;;;10.27;9.57;;;10.20;99.90;;;;;;5233210;27;20300;-78
2024/04/22 12:14:25;;;;;;;9.50;8.90;;;10.20;99.90;;;;;;5243541;27;20240;-78
2024/04/22 12:16:52;;;;;;;9.43;8.83;;;10.80;99.90;;;;;;5241831;27;20240;-78
2024/04/22 12:19:20;;;;;;;9.33;8.73;;;10.60;99.90;;;;;;5262047;27;20244;-78
2024/04/22 12:21:46;;;;;;;9.47;8.80;;;10.50;99.90;;;;;;5244621;27;20310;-78
2024/04/22 12:24:15;;;;;;;9.93;9.10;;;10.60;99.90;;;;;;5263971;27;20265;-78
2024/04/22 12:26:43;;;;;;;9.17;8.67;;;10.70;99.90;;;;;;5259131;27;20246;-78
2024/04/22 12:29:12;;;;;;;9.87;9.10;;;10.90;99.90;;;;;;5252001;27;20253;-78
2024/04/22 12:31:37;;;;;;;10.23;9.43;;;10.70;99.90;;;;;;5243039;27;20247;-78
2024/04/22 12:34:06;;;;;;;10.23;9.53;;;10.80;99.90;;;;;;5244242;27;20292;-79
2024/04/22 12:36:32;;;;;;;9.90;9.20;;;10.50;99.90;;;;;;5261842;27;20241;-78
2024/04/22 12:39:01;;;;;;;9.23;8.63;;;10.30;99.90;;;;;;5243262;27;20287;-78
2024/04/22 12:41:28;;;;;;;9.93;9.30;;;10.40;99.90;;;;;;5242999;27;20308;-78
2024/04/22 12:43:59;;;;;;;9.70;9.10;;;10.10;99.90;;;;;;5243918;27;20283;-78
2024/04/22 12:46:25;;;;;;;9.53;8.90;;;10.20;99.90;;;;;;5242950;27;20236;-78
2024/04/22 12:51:37;;;;;;;9.27;8.57;;;10.40;99.90;;;;;;5258697;27;20291;-78
2024/04/22 12:54:06;;;;;;;9.53;8.93;;;10.50;99.90;;;;;;5235863;27;20234;-78